createdAt,value
2023-02-06T00:01:28.186Z,74.00
2023-02-06T00:03:54.829Z,74.26
2023-02-06T00:06:21.288Z,74.03
2023-02-06T00:08:48.932Z,74.26
2023-02-06T00:11:19.417Z,74.27
2023-02-06T00:13:45.935Z,74.63
2023-02-06T00:16:17.572Z,74.72
2023-02-06T00:18:44.469Z,74.79
2023-02-06T00:21:11.205Z,74.88
2023-02-06T00:23:37.721Z,74.92
2023-02-06T00:26:05.450Z,75.17
2023-02-06T00:28:31.934Z,75.42
2023-02-06T00:30:58.426Z,75.38
2023-02-06T00:33:24.945Z,75.32
2023-02-06T00:35:51.424Z,75.50
2023-02-06T00:38:17.981Z,75.35
2023-02-06T00:40:44.640Z,75.62
2023-02-06T00:43:11.119Z,75.49
2023-02-06T00:45:37.706Z,75.40
2023-02-06T00:48:04.263Z,75.22
2023-02-06T00:50:30.769Z,75.35
2023-02-06T00:52:57.264Z,75.00
2023-02-06T00:55:23.753Z,75.16
2023-02-06T00:57:50.249Z,74.92
2023-02-06T01:00:16.887Z,74.71
2023-02-06T01:02:43.561Z,74.91
2023-02-06T01:05:10.356Z,74.86
2023-02-06T01:07:39.357Z,74.46
2023-02-06T01:10:08.222Z,74.68
2023-02-06T01:12:36.178Z,74.38
2023-02-06T01:15:05.498Z,74.38
2023-02-06T01:17:33.163Z,74.55
2023-02-06T01:19:59.895Z,74.44
2023-02-06T01:22:26.425Z,75.04
2023-02-06T01:24:52.897Z,74.78
2023-02-06T01:27:19.379Z,75.26
2023-02-06T01:29:45.847Z,75.23
2023-02-06T01:32:12.339Z,75.46
2023-02-06T01:34:38.884Z,75.50
2023-02-06T01:37:05.336Z,75.50
2023-02-06T01:39:33.123Z,75.55
2023-02-06T01:41:59.587Z,75.63
2023-02-06T01:44:26.416Z,75.81
2023-02-06T01:46:55.852Z,75.88
2023-02-06T01:49:37.277Z,75.91
2023-02-06T01:52:21.582Z,75.93
2023-02-06T01:55:00.685Z,76.13
2023-02-06T01:57:27.611Z,75.98
2023-02-06T01:59:59.403Z,76.10
2023-02-06T02:02:27.481Z,76.13
2023-02-06T02:04:55.522Z,76.16
2023-02-06T02:07:25.480Z,76.01
2023-02-06T02:09:52.360Z,76.46
2023-02-06T02:12:19.094Z,76.42
2023-02-06T02:14:47.075Z,76.83
2023-02-06T02:17:19.645Z,76.74
2023-02-06T02:20:16.519Z,76.74
2023-02-06T02:23:03.719Z,77.02
2023-02-06T02:25:57.366Z,76.97
2023-02-06T02:28:50.839Z,77.00
2023-02-06T02:31:53.807Z,77.11
2023-02-06T02:34:54.816Z,77.29
2023-02-06T02:37:27.350Z,77.35
2023-02-06T02:40:08.106Z,77.40
2023-02-06T02:42:46.997Z,77.35
2023-02-06T02:45:21.549Z,77.59
2023-02-06T02:47:58.973Z,77.60
2023-02-06T02:50:25.869Z,77.68
2023-02-06T02:52:52.793Z,77.90
2023-02-06T02:55:22.326Z,78.10
2023-02-06T02:57:52.353Z,77.99
2023-02-06T03:00:20.048Z,78.76
2023-02-06T03:02:48.400Z,79.13
2023-02-06T03:05:18.505Z,78.80
2023-02-06T03:08:10.718Z,79.51
2023-02-06T03:11:02.990Z,79.72
2023-02-06T03:13:37.925Z,79.76
2023-02-06T03:16:29.473Z,79.79
2023-02-06T03:19:04.159Z,80.06
2023-02-06T03:21:32.916Z,80.08
2023-02-06T03:24:01.998Z,80.11
2023-02-06T03:26:29.469Z,80.54
2023-02-06T03:29:01.152Z,80.49
2023-02-06T03:31:38.797Z,80.65
2023-02-06T03:34:15.804Z,80.86
2023-02-06T03:36:42.384Z,81.22
2023-02-06T03:39:08.874Z,81.27
2023-02-06T03:41:37.630Z,81.37
2023-02-06T03:44:06.877Z,81.79
2023-02-06T03:46:34.373Z,81.68
2023-02-06T03:49:03.765Z,81.68
2023-02-06T03:51:36.878Z,82.01
2023-02-06T03:54:04.462Z,82.03
2023-02-06T03:57:01.226Z,82.30
2023-02-06T03:59:27.890Z,82.58
2023-02-06T04:01:59.842Z,82.78
2023-02-06T04:04:30.328Z,82.90
2023-02-06T04:06:59.015Z,83.24
2023-02-06T04:09:25.491Z,83.91
2023-02-06T04:11:52.182Z,84.23
2023-02-06T04:14:18.655Z,84.64
2023-02-06T04:16:45.174Z,84.37
2023-02-06T04:19:11.661Z,84.90
2023-02-06T04:21:38.277Z,85.00
2023-02-06T04:24:04.926Z,85.16
2023-02-06T04:26:31.424Z,85.45
2023-02-06T04:28:58.073Z,85.74
2023-02-06T04:31:24.620Z,85.75
2023-02-06T04:33:51.283Z,85.72
2023-02-06T04:36:17.778Z,86.18
2023-02-06T04:38:44.316Z,86.97
2023-02-06T04:41:10.810Z,86.82
2023-02-06T04:43:37.257Z,86.94
2023-02-06T04:46:03.827Z,87.39
2023-02-06T04:48:30.356Z,87.64
2023-02-06T04:50:56.827Z,87.80
2023-02-06T04:53:23.307Z,88.11
2023-02-06T04:55:49.803Z,88.28
2023-02-06T04:58:16.273Z,88.95
2023-02-06T05:00:42.762Z,89.08
2023-02-06T05:03:09.262Z,89.29
2023-02-06T05:05:35.977Z,88.80
2023-02-06T05:08:02.583Z,89.11
2023-02-06T05:10:29.126Z,90.09
2023-02-06T05:12:56.167Z,90.04
2023-02-06T05:15:22.898Z,90.46
2023-02-06T05:17:49.368Z,91.20
2023-02-06T05:20:16.009Z,91.57
2023-02-06T05:22:42.505Z,92.04
2023-02-06T05:25:08.970Z,92.36
2023-02-06T05:27:35.643Z,92.77
2023-02-06T05:30:02.334Z,92.69
2023-02-06T05:32:28.842Z,92.08
2023-02-06T05:34:55.321Z,92.12
2023-02-06T05:37:21.796Z,92.27
2023-02-06T05:39:48.267Z,92.35
2023-02-06T05:42:14.693Z,92.52
2023-02-06T05:44:41.192Z,92.88
2023-02-06T05:47:07.675Z,93.01
2023-02-06T05:49:34.139Z,92.76
2023-02-06T05:52:00.879Z,93.30
2023-02-06T05:54:27.409Z,93.34
2023-02-06T05:56:53.889Z,92.94
2023-02-06T05:59:20.470Z,93.90
2023-02-06T06:01:47.008Z,93.60
2023-02-06T06:04:13.604Z,93.75
2023-02-06T06:06:40.166Z,93.38
2023-02-06T06:09:06.661Z,93.81
2023-02-06T06:11:33.592Z,93.89
2023-02-06T06:14:00.170Z,93.98
2023-02-06T06:16:26.691Z,94.60
2023-02-06T06:18:53.424Z,94.81
2023-02-06T06:21:19.983Z,94.68
2023-02-06T06:23:46.444Z,94.17
2023-02-06T06:26:13.006Z,94.04
2023-02-06T06:28:40.208Z,93.89
2023-02-06T06:31:11.931Z,93.43
2023-02-06T06:33:39.435Z,93.86
2023-02-06T06:36:08.090Z,93.46
2023-02-06T06:38:34.674Z,93.75
2023-02-06T06:41:01.335Z,93.21
2023-02-06T06:43:27.846Z,93.15
2023-02-06T06:45:54.376Z,93.12
2023-02-06T06:48:20.909Z,93.02
2023-02-06T06:50:50.340Z,92.45
2023-02-06T06:53:16.819Z,92.46
2023-02-06T06:55:43.333Z,92.57
2023-02-06T06:58:09.857Z,92.29
2023-02-06T07:00:38.187Z,92.43
2023-02-06T07:03:05.648Z,92.10
2023-02-06T07:05:32.361Z,91.89
2023-02-06T07:07:58.813Z,91.93
2023-02-06T07:10:26.068Z,92.12
2023-02-06T07:12:53.691Z,92.01
2023-02-06T07:15:20.658Z,91.96
2023-02-06T07:17:47.141Z,91.74
2023-02-06T07:20:13.745Z,92.34
2023-02-06T07:22:40.442Z,91.79
2023-02-06T07:25:07.027Z,91.47
2023-02-06T07:27:33.582Z,91.35
2023-02-06T07:30:00.125Z,91.71
2023-02-06T07:32:26.934Z,91.43
2023-02-06T07:34:53.498Z,91.53
2023-02-06T07:37:20.026Z,91.33
2023-02-06T07:39:46.510Z,91.23
2023-02-06T07:42:13.559Z,91.29
2023-02-06T07:44:40.072Z,91.35
2023-02-06T07:47:09.386Z,91.13
2023-02-06T07:49:35.975Z,90.81
2023-02-06T07:52:02.463Z,90.84
2023-02-06T07:54:29.089Z,90.54
2023-02-06T07:56:55.622Z,90.57
2023-02-06T07:59:22.397Z,90.44
2023-02-06T08:01:48.949Z,90.07
2023-02-06T08:04:15.913Z,90.07
2023-02-06T08:06:43.370Z,90.14
2023-02-06T08:09:14.744Z,90.05
2023-02-06T08:11:41.233Z,89.61
2023-02-06T08:14:08.032Z,89.68
2023-02-06T08:16:34.626Z,89.36
2023-02-06T08:19:01.138Z,89.48
2023-02-06T08:21:27.663Z,89.37
2023-02-06T08:23:59.391Z,89.40
2023-02-06T08:26:28.047Z,89.34
2023-02-06T08:28:56.427Z,88.80
2023-02-06T08:31:25.442Z,88.88
2023-02-06T08:33:52.154Z,88.89
2023-02-06T08:36:19.999Z,88.91
2023-02-06T08:38:46.784Z,88.88
2023-02-06T08:41:24.788Z,88.76
2023-02-06T08:43:55.310Z,88.29
2023-02-06T08:46:23.505Z,88.24
2023-02-06T08:49:01.750Z,88.16
2023-02-06T08:51:28.597Z,88.00
2023-02-06T08:53:59.669Z,87.89
2023-02-06T08:56:27.380Z,87.94
2023-02-06T08:58:54.273Z,88.21
2023-02-06T09:01:21.175Z,88.16
2023-02-06T09:03:48.195Z,87.98
2023-02-06T09:06:15.199Z,88.17
2023-02-06T09:08:42.347Z,87.70
2023-02-06T09:11:12.846Z,87.58
2023-02-06T09:13:39.619Z,87.25
2023-02-06T09:16:06.625Z,87.67
2023-02-06T09:18:33.630Z,87.45
2023-02-06T09:21:11.110Z,87.52
2023-02-06T09:23:43.822Z,87.49
2023-02-06T09:26:11.227Z,87.48
2023-02-06T09:28:37.748Z,87.92
2023-02-06T09:31:04.607Z,87.99
2023-02-06T09:33:31.160Z,87.78
2023-02-06T09:36:09.571Z,87.85
2023-02-06T09:38:38.422Z,88.38
2023-02-06T09:41:10.885Z,88.40
2023-02-06T09:43:37.687Z,88.21
2023-02-06T09:46:06.331Z,88.44
2023-02-06T09:48:35.650Z,88.11
2023-02-06T09:51:14.825Z,88.85
2023-02-06T09:53:49.967Z,88.39
2023-02-06T09:56:33.048Z,88.40
2023-02-06T09:59:10.900Z,88.43
2023-02-06T10:01:45.652Z,88.24
2023-02-06T10:04:24.477Z,88.54
2023-02-06T10:06:56.229Z,88.28
2023-02-06T10:09:33.871Z,88.70
2023-02-06T10:12:55.850Z,88.39
2023-02-06T10:15:45.465Z,88.12
2023-02-06T10:18:22.320Z,87.98
2023-02-06T10:20:59.499Z,88.69
2023-02-06T10:23:37.624Z,88.47
2023-02-06T10:26:08.398Z,88.84
2023-02-06T10:28:35.432Z,88.51
2023-02-06T10:31:20.897Z,88.44
2023-02-06T10:34:15.463Z,88.36
2023-02-06T10:36:57.381Z,89.01
2023-02-06T10:39:45.557Z,88.86
2023-02-06T10:42:36.448Z,88.99
2023-02-06T10:45:19.298Z,88.88
2023-02-06T10:48:03.032Z,88.85
2023-02-06T10:50:56.798Z,88.65
2023-02-06T10:53:29.196Z,89.04
2023-02-06T10:56:05.846Z,88.74
2023-02-06T10:58:43.263Z,88.36
2023-02-06T11:01:25.116Z,88.49
2023-02-06T11:04:04.214Z,89.06
2023-02-06T11:06:30.818Z,89.06
2023-02-06T11:08:57.554Z,89.34
2023-02-06T11:11:33.458Z,89.03
2023-02-06T11:14:06.306Z,88.80
2023-02-06T11:16:35.428Z,89.46
2023-02-06T11:19:15.753Z,89.06
2023-02-06T11:21:42.285Z,89.17
2023-02-06T11:24:13.029Z,89.46
2023-02-06T11:26:41.475Z,88.95
2023-02-06T11:29:15.012Z,89.25
2023-02-06T11:31:44.469Z,89.76
2023-02-06T11:34:33.234Z,89.38
2023-02-06T11:37:01.564Z,89.19
2023-02-06T11:39:34.132Z,89.41
2023-02-06T11:42:06.990Z,89.61
2023-02-06T11:44:43.297Z,89.54
2023-02-06T11:47:28.707Z,89.42
2023-02-06T11:49:56.454Z,89.41
2023-02-06T11:52:32.359Z,89.49
2023-02-06T11:55:02.780Z,89.53
2023-02-06T11:57:31.409Z,89.80
2023-02-06T12:00:18.916Z,89.24
2023-02-06T12:02:53.528Z,89.91
2023-02-06T12:05:21.094Z,89.41
2023-02-06T12:07:56.007Z,89.83
2023-02-06T12:10:24.235Z,89.34
2023-02-06T12:12:56.922Z,89.84
2023-02-06T12:15:45.456Z,89.89
2023-02-06T12:18:15.762Z,89.48
2023-02-06T12:20:52.206Z,89.71
2023-02-06T12:23:24.598Z,89.08
2023-02-06T12:25:54.786Z,89.73
2023-02-06T12:28:26.613Z,89.27
2023-02-06T12:31:04.814Z,89.42
2023-02-06T12:33:40.441Z,89.18
2023-02-06T12:36:20.665Z,88.84
2023-02-06T12:38:54.429Z,88.41
2023-02-06T12:41:43.944Z,88.40
2023-02-06T12:44:10.333Z,87.76
2023-02-06T12:46:36.859Z,88.28
2023-02-06T12:49:11.694Z,87.55
2023-02-06T12:51:47.292Z,87.46
2023-02-06T12:54:17.972Z,87.90
2023-02-06T12:56:48.610Z,87.95
2023-02-06T12:59:34.547Z,87.95
2023-02-06T13:02:22.388Z,87.82
2023-02-06T13:04:49.447Z,86.66
2023-02-06T13:07:18.019Z,87.04
2023-02-06T13:09:50.430Z,86.63
2023-02-06T13:12:25.753Z,86.42
2023-02-06T13:15:03.568Z,85.61
2023-02-06T13:17:37.036Z,86.12
2023-02-06T13:20:18.143Z,86.58
2023-02-06T13:22:49.299Z,86.24
2023-02-06T13:25:24.854Z,85.53
2023-02-06T13:27:52.565Z,85.97
2023-02-06T13:30:31.548Z,86.16
2023-02-06T13:33:14.042Z,86.05
2023-02-06T13:35:56.974Z,85.87
2023-02-06T13:38:23.441Z,85.49
2023-02-06T13:41:14.721Z,85.12
2023-02-06T13:43:54.336Z,85.27
2023-02-06T13:46:36.269Z,84.95
2023-02-06T13:49:08.683Z,85.28
2023-02-06T13:51:45.459Z,85.78
2023-02-06T13:54:30.634Z,85.54
2023-02-06T13:57:20.584Z,85.21
2023-02-06T13:59:51.451Z,84.90
2023-02-06T14:02:37.363Z,85.00
2023-02-06T14:05:06.742Z,85.70
2023-02-06T14:07:45.234Z,85.15
2023-02-06T14:10:55.076Z,85.35
2023-02-06T14:13:39.897Z,84.83
2023-02-06T14:16:23.620Z,84.90
2023-02-06T14:19:05.129Z,84.48
2023-02-06T14:21:59.348Z,84.77
2023-02-06T14:24:54.145Z,84.53
2023-02-06T14:28:00.058Z,84.77
2023-02-06T14:30:53.487Z,84.51
2023-02-06T14:33:44.890Z,84.69
2023-02-06T14:36:39.244Z,83.12
2023-02-06T14:39:40.710Z,83.23
2023-02-06T14:42:13.437Z,82.77
2023-02-06T14:44:42.077Z,82.63
2023-02-06T14:47:17.309Z,82.48
2023-02-06T14:49:45.740Z,82.12
2023-02-06T14:52:24.465Z,81.33
2023-02-06T14:54:50.930Z,81.68
2023-02-06T14:57:25.946Z,81.59
2023-02-06T15:00:04.669Z,81.28
2023-02-06T15:02:33.770Z,81.09
2023-02-06T15:05:02.175Z,80.79
2023-02-06T15:07:31.912Z,79.78
2023-02-06T15:10:11.361Z,79.26
2023-02-06T15:12:38.380Z,79.09
2023-02-06T15:15:20.270Z,78.53
2023-02-06T15:18:07.791Z,77.70
2023-02-06T15:20:40.362Z,77.77
2023-02-06T15:23:17.984Z,77.34
2023-02-06T15:25:59.022Z,77.63
2023-02-06T15:28:29.381Z,77.63
2023-02-06T15:30:57.087Z,77.52
2023-02-06T15:33:27.906Z,77.62
2023-02-06T15:35:56.446Z,77.29
2023-02-06T15:38:24.378Z,77.50
2023-02-06T15:40:55.032Z,77.49
2023-02-06T15:43:25.358Z,77.35
2023-02-06T15:45:55.708Z,77.15
2023-02-06T15:48:35.516Z,77.15
2023-02-06T15:51:15.525Z,76.91
2023-02-06T15:53:43.509Z,76.61
2023-02-06T15:56:29.681Z,77.00
2023-02-06T15:58:58.826Z,76.54
2023-02-06T16:01:26.426Z,77.06
2023-02-06T16:03:58.345Z,76.85
2023-02-06T16:06:24.784Z,76.76
2023-02-06T16:08:59.519Z,77.04
2023-02-06T16:11:46.568Z,76.68
2023-02-06T16:14:20.207Z,76.72
2023-02-06T16:16:59.925Z,76.64
2023-02-06T16:19:39.046Z,76.16
2023-02-06T16:22:39.900Z,76.31
2023-02-06T16:25:25.868Z,76.51
2023-02-06T16:27:53.019Z,76.83
2023-02-06T16:30:26.147Z,76.16
2023-02-06T16:32:54.674Z,76.85
2023-02-06T16:35:22.040Z,77.29
2023-02-06T16:37:49.170Z,77.64
2023-02-06T16:40:16.717Z,77.51
2023-02-06T16:42:46.544Z,77.25
2023-02-06T16:45:22.285Z,77.43
2023-02-06T16:47:48.865Z,77.04
2023-02-06T16:50:16.582Z,77.16
2023-02-06T16:52:49.058Z,77.10
2023-02-06T16:55:18.439Z,77.70
2023-02-06T16:57:46.028Z,77.14
2023-02-06T17:00:23.678Z,77.06
2023-02-06T17:02:51.977Z,77.54
2023-02-06T17:05:19.929Z,77.67
2023-02-06T17:07:48.938Z,78.44
2023-02-06T17:10:16.417Z,78.49
2023-02-06T17:12:45.119Z,78.80
2023-02-06T17:15:16.292Z,78.52
2023-02-06T17:17:42.996Z,78.21
2023-02-06T17:20:29.473Z,78.57
2023-02-06T17:22:56.021Z,78.30
2023-02-06T17:25:22.482Z,79.03
2023-02-06T17:27:48.947Z,79.04
2023-02-06T17:30:20.390Z,78.64
2023-02-06T17:32:47.079Z,78.93
2023-02-06T17:35:13.671Z,78.74
2023-02-06T17:37:40.186Z,78.54
2023-02-06T17:40:07.267Z,78.46
2023-02-06T17:42:33.785Z,78.34
2023-02-06T17:45:00.182Z,78.44
2023-02-06T17:47:26.746Z,77.97
2023-02-06T17:49:53.169Z,78.33
2023-02-06T17:52:19.591Z,78.15
2023-02-06T17:54:46.088Z,78.10
2023-02-06T17:57:13.658Z,78.17
2023-02-06T17:59:40.111Z,77.62
2023-02-06T18:02:06.682Z,77.72
2023-02-06T18:04:33.112Z,77.71
2023-02-06T18:06:59.568Z,77.93
2023-02-06T18:09:26.013Z,77.66
2023-02-06T18:11:52.420Z,77.17
2023-02-06T18:14:18.876Z,77.43
2023-02-06T18:16:46.116Z,77.34
2023-02-06T18:19:12.703Z,77.46
2023-02-06T18:21:39.113Z,77.11
2023-02-06T18:24:05.932Z,77.37
2023-02-06T18:26:32.692Z,77.14
2023-02-06T18:28:59.153Z,77.37
2023-02-06T18:31:27.955Z,77.60
2023-02-06T18:33:55.327Z,77.52
2023-02-06T18:36:23.018Z,77.35
2023-02-06T18:38:49.476Z,77.82
2023-02-06T18:41:39.528Z,77.84
2023-02-06T18:44:08.382Z,77.94
2023-02-06T18:46:34.993Z,77.82
2023-02-06T18:49:01.519Z,77.95
2023-02-06T18:51:29.360Z,77.77
2023-02-06T18:53:57.199Z,78.20
2023-02-06T18:56:23.616Z,77.57
2023-02-06T18:58:50.034Z,77.94
2023-02-06T19:01:20.784Z,78.37
2023-02-06T19:03:48.197Z,77.94
2023-02-06T19:06:19.671Z,78.31
2023-02-06T19:08:46.843Z,78.07
2023-02-06T19:11:13.428Z,78.65
2023-02-06T19:13:40.616Z,78.37
2023-02-06T19:16:13.328Z,78.62
2023-02-06T19:18:42.182Z,78.78
2023-02-06T19:21:11.497Z,78.85
2023-02-06T19:23:39.339Z,79.35
2023-02-06T19:26:09.656Z,79.25
2023-02-06T19:28:41.120Z,79.26
2023-02-06T19:31:08.917Z,79.37
2023-02-06T19:33:37.881Z,79.57
2023-02-06T19:36:08.719Z,79.86
2023-02-06T19:38:35.361Z,79.70
2023-02-06T19:41:06.764Z,79.90
2023-02-06T19:43:33.905Z,79.96
2023-02-06T19:46:09.415Z,80.11
2023-02-06T19:48:35.878Z,80.09
2023-02-06T19:51:07.476Z,80.17
2023-02-06T19:53:34.533Z,80.49
2023-02-06T19:56:05.064Z,80.66
2023-02-06T19:58:32.019Z,80.65
2023-02-06T20:00:59.129Z,80.59
2023-02-06T20:03:25.755Z,80.77
2023-02-06T20:05:52.240Z,80.90
2023-02-06T20:08:18.688Z,80.85
2023-02-06T20:10:45.178Z,80.77
2023-02-06T20:13:11.670Z,81.01
2023-02-06T20:15:38.938Z,80.68
2023-02-06T20:18:06.491Z,80.84
2023-02-06T20:20:34.621Z,80.84
2023-02-06T20:23:01.615Z,80.95
2023-02-06T20:25:28.143Z,80.97
2023-02-06T20:27:54.677Z,81.29
2023-02-06T20:30:22.706Z,81.17
2023-02-06T20:32:49.248Z,80.93
2023-02-06T20:35:15.682Z,81.05
2023-02-06T20:37:42.153Z,81.11
2023-02-06T20:40:09.098Z,80.99
2023-02-06T20:42:39.428Z,81.21
2023-02-06T20:45:06.154Z,81.22
2023-02-06T20:47:32.568Z,81.52
2023-02-06T20:50:00.461Z,81.10
2023-02-06T20:52:27.042Z,81.27
2023-02-06T20:54:53.480Z,81.40
2023-02-06T20:57:22.259Z,81.22
2023-02-06T20:59:49.112Z,81.20
2023-02-06T21:02:15.544Z,81.32
2023-02-06T21:04:42.971Z,81.48
2023-02-06T21:07:09.448Z,80.86
2023-02-06T21:09:36.539Z,81.20
2023-02-06T21:12:03.004Z,81.08
2023-02-06T21:14:30.042Z,81.09
2023-02-06T21:16:57.198Z,80.97
2023-02-06T21:19:24.936Z,80.74
2023-02-06T21:21:51.345Z,80.68
2023-02-06T21:24:17.974Z,80.79
2023-02-06T21:26:44.411Z,80.55
2023-02-06T21:29:12.758Z,80.52
2023-02-06T21:31:39.344Z,80.54
2023-02-06T21:34:09.594Z,80.61
2023-02-06T21:36:37.908Z,80.07
2023-02-06T21:39:04.813Z,79.79
2023-02-06T21:41:31.305Z,80.22
2023-02-06T21:43:57.953Z,80.05
2023-02-06T21:46:24.538Z,80.08
2023-02-06T21:48:52.925Z,79.61
2023-02-06T21:51:20.337Z,79.77
2023-02-06T21:53:46.795Z,80.02
2023-02-06T21:56:18.938Z,79.46
2023-02-06T21:58:46.130Z,79.54
2023-02-06T22:01:29.800Z,80.03
2023-02-06T22:03:57.065Z,79.75
2023-02-06T22:06:23.648Z,79.33
2023-02-06T22:08:52.152Z,79.61
2023-02-06T22:11:24.556Z,79.59
2023-02-06T22:13:51.971Z,79.11
2023-02-06T22:16:21.238Z,79.21
2023-02-06T22:18:47.757Z,78.51
2023-02-06T22:21:20.134Z,78.55
2023-02-06T22:23:49.766Z,78.35
2023-02-06T22:26:17.653Z,78.44
2023-02-06T22:28:44.627Z,78.17
2023-02-06T22:31:14.339Z,77.89
2023-02-06T22:33:41.066Z,78.08
2023-02-06T22:36:12.562Z,78.06
2023-02-06T22:38:39.805Z,78.10
2023-02-06T22:41:08.447Z,78.41
2023-02-06T22:43:36.871Z,78.25
2023-02-06T22:46:03.959Z,77.87
2023-02-06T22:48:30.489Z,77.65
2023-02-06T22:50:57.255Z,78.11
2023-02-06T22:53:30.216Z,78.36
2023-02-06T22:56:16.284Z,77.92
2023-02-06T22:58:42.853Z,78.22
2023-02-06T23:01:09.505Z,78.55
2023-02-06T23:03:36.002Z,78.36
2023-02-06T23:06:03.889Z,78.27
2023-02-06T23:08:30.649Z,77.66
2023-02-06T23:10:57.417Z,77.93
2023-02-06T23:13:23.865Z,77.88
2023-02-06T23:15:50.372Z,77.75
2023-02-06T23:18:16.914Z,77.91
2023-02-06T23:20:43.533Z,78.11
2023-02-06T23:23:09.995Z,78.26
2023-02-06T23:25:42.707Z,77.75
2023-02-06T23:28:09.200Z,78.31
2023-02-06T23:30:35.687Z,77.83
2023-02-06T23:33:02.211Z,78.21
2023-02-06T23:35:28.674Z,77.79
2023-02-06T23:37:55.152Z,77.99
2023-02-06T23:40:21.626Z,78.20
2023-02-06T23:42:48.211Z,78.00
2023-02-06T23:45:14.704Z,77.88
2023-02-06T23:47:42.614Z,78.09
2023-02-06T23:50:09.517Z,78.26
2023-02-06T23:52:36.020Z,78.33
2023-02-06T23:55:02.449Z,78.57
2023-02-06T23:57:28.991Z,78.37
2023-02-06T23:59:55.453Z,78.12
